sensor_id;sensor_type;location;lat;lon;timestamp;P1;durP1;ratioP1;P2;durP2;ratioP2
14094;SDS011;18096;48.142;16.290;2023-05-07T00:01:39;1.60;;;1.50;;
14094;SDS011;18096;48.142;16.290;2023-05-07T00:04:04;1.40;;;1.30;;
14094;SDS011;18096;48.142;16.290;2023-05-07T00:06:31;1.80;;;1.30;;
14094;SDS011;18096;48.142;16.290;2023-05-07T00:08:57;1.50;;;1.40;;
14094;SDS011;18096;48.142;16.290;2023-05-07T00:11:24;1.45;;;1.38;;
14094;SDS011;18096;48.142;16.290;2023-05-07T00:13:50;1.83;;;1.73;;
14094;SDS011;18096;48.142;16.290;2023-05-07T00:16:16;1.42;;;1.33;;
14094;SDS011;18096;48.142;16.290;2023-05-07T00:18:41;1.60;;;1.50;;
14094;SDS011;18096;48.142;16.290;2023-05-07T00:21:07;2.08;;;1.42;;
14094;SDS011;18096;48.142;16.290;2023-05-07T00:23:33;1.30;;;1.30;;
14094;SDS011;18096;48.142;16.290;2023-05-07T00:25:58;1.57;;;1.47;;
14094;SDS011;18096;48.142;16.290;2023-05-07T00:28:24;1.27;;;1.17;;
14094;SDS011;18096;48.142;16.290;2023-05-07T00:30:49;1.00;;;1.00;;
14094;SDS011;18096;48.142;16.290;2023-05-07T00:33:15;0.80;;;0.80;;
14094;SDS011;18096;48.142;16.290;2023-05-07T00:35:41;1.60;;;1.50;;
14094;SDS011;18096;48.142;16.290;2023-05-07T00:38:07;1.50;;;1.42;;
14094;SDS011;18096;48.142;16.290;2023-05-07T00:40:33;1.10;;;1.10;;
14094;SDS011;18096;48.142;16.290;2023-05-07T00:42:58;1.40;;;1.30;;
14094;SDS011;18096;48.142;16.290;2023-05-07T00:45:27;1.80;;;1.38;;
14094;SDS011;18096;48.142;16.290;2023-05-07T00:47:57;3.30;;;1.20;;
14094;SDS011;18096;48.142;16.290;2023-05-07T00:50:26;1.13;;;1.10;;
14094;SDS011;18096;48.142;16.290;2023-05-07T00:52:53;1.10;;;1.10;;
14094;SDS011;18096;48.142;16.290;2023-05-07T00:55:19;1.77;;;1.17;;
14094;SDS011;18096;48.142;16.290;2023-05-07T00:57:45;1.45;;;1.20;;
14094;SDS011;18096;48.142;16.290;2023-05-07T01:00:11;1.00;;;1.00;;
14094;SDS011;18096;48.142;16.290;2023-05-07T01:02:40;1.02;;;0.95;;
14094;SDS011;18096;48.142;16.290;2023-05-07T01:05:07;0.97;;;0.90;;
14094;SDS011;18096;48.142;16.290;2023-05-07T01:07:36;1.00;;;1.00;;
14094;SDS011;18096;48.142;16.290;2023-05-07T01:10:04;1.30;;;1.20;;
14094;SDS011;18096;48.142;16.290;2023-05-07T01:12:30;0.90;;;0.80;;
14094;SDS011;18096;48.142;16.290;2023-05-07T01:14:56;1.40;;;1.00;;
14094;SDS011;18096;48.142;16.290;2023-05-07T01:17:22;0.60;;;0.60;;
14094;SDS011;18096;48.142;16.290;2023-05-07T01:19:48;6.72;;;1.10;;
14094;SDS011;18096;48.142;16.290;2023-05-07T01:22:15;1.00;;;0.90;;
14094;SDS011;18096;48.142;16.290;2023-05-07T01:24:44;0.80;;;0.80;;
14094;SDS011;18096;48.142;16.290;2023-05-07T01:27:10;0.90;;;0.90;;
14094;SDS011;18096;48.142;16.290;2023-05-07T01:29:36;1.03;;;1.00;;
14094;SDS011;18096;48.142;16.290;2023-05-07T01:32:01;1.02;;;1.00;;
14094;SDS011;18096;48.142;16.290;2023-05-07T01:34:30;0.90;;;0.90;;
14094;SDS011;18096;48.142;16.290;2023-05-07T01:36:57;0.80;;;0.80;;
14094;SDS011;18096;48.142;16.290;2023-05-07T01:39:24;0.98;;;0.98;;
14094;SDS011;18096;48.142;16.290;2023-05-07T01:41:52;0.90;;;0.90;;
14094;SDS011;18096;48.142;16.290;2023-05-07T01:44:21;2.60;;;1.00;;
14094;SDS011;18096;48.142;16.290;2023-05-07T01:46:47;1.30;;;1.10;;
14094;SDS011;18096;48.142;16.290;2023-05-07T01:49:14;0.98;;;0.98;;
14094;SDS011;18096;48.142;16.290;2023-05-07T01:51:41;0.90;;;0.90;;
14094;SDS011;18096;48.142;16.290;2023-05-07T01:54:06;0.95;;;0.95;;
14094;SDS011;18096;48.142;16.290;2023-05-07T01:56:33;0.90;;;0.90;;
14094;SDS011;18096;48.142;16.290;2023-05-07T01:58:58;1.20;;;1.10;;
14094;SDS011;18096;48.142;16.290;2023-05-07T02:01:24;0.80;;;0.80;;
14094;SDS011;18096;48.142;16.290;2023-05-07T02:03:50;0.90;;;0.83;;
14094;SDS011;18096;48.142;16.290;2023-05-07T02:06:15;0.98;;;0.88;;
14094;SDS011;18096;48.142;16.290;2023-05-07T02:08:41;1.13;;;1.00;;
14094;SDS011;18096;48.142;16.290;2023-05-07T02:11:07;0.90;;;0.90;;
14094;SDS011;18096;48.142;16.290;2023-05-07T02:13:33;7.70;;;1.00;;
14094;SDS011;18096;48.142;16.290;2023-05-07T02:15:59;1.20;;;1.10;;
14094;SDS011;18096;48.142;16.290;2023-05-07T02:18:25;2.60;;;0.98;;
14094;SDS011;18096;48.142;16.290;2023-05-07T02:20:51;1.50;;;1.10;;
14094;SDS011;18096;48.142;16.290;2023-05-07T02:23:17;1.02;;;1.02;;
14094;SDS011;18096;48.142;16.290;2023-05-07T02:25:42;1.50;;;1.40;;
14094;SDS011;18096;48.142;16.290;2023-05-07T02:28:08;1.25;;;1.10;;
14094;SDS011;18096;48.142;16.290;2023-05-07T02:30:35;1.13;;;1.03;;
14094;SDS011;18096;48.142;16.290;2023-05-07T02:33:02;1.40;;;1.30;;
14094;SDS011;18096;48.142;16.290;2023-05-07T02:35:27;1.10;;;1.00;;
14094;SDS011;18096;48.142;16.290;2023-05-07T02:37:53;1.40;;;1.30;;
14094;SDS011;18096;48.142;16.290;2023-05-07T02:40:19;2.20;;;1.30;;
14094;SDS011;18096;48.142;16.290;2023-05-07T02:42:44;1.30;;;1.20;;
14094;SDS011;18096;48.142;16.290;2023-05-07T02:45:10;3.70;;;1.70;;
14094;SDS011;18096;48.142;16.290;2023-05-07T02:47:36;1.48;;;1.48;;
14094;SDS011;18096;48.142;16.290;2023-05-07T02:50:01;3.47;;;1.43;;
14094;SDS011;18096;48.142;16.290;2023-05-07T02:52:27;3.33;;;2.00;;
14094;SDS011;18096;48.142;16.290;2023-05-07T02:54:53;4.10;;;1.80;;
14094;SDS011;18096;48.142;16.290;2023-05-07T02:57:19;4.45;;;2.30;;
14094;SDS011;18096;48.142;16.290;2023-05-07T02:59:44;2.80;;;1.87;;
14094;SDS011;18096;48.142;16.290;2023-05-07T03:02:10;1.88;;;1.75;;
14094;SDS011;18096;48.142;16.290;2023-05-07T03:04:36;2.90;;;1.70;;
14094;SDS011;18096;48.142;16.290;2023-05-07T03:07:03;1.48;;;1.38;;
14094;SDS011;18096;48.142;16.290;2023-05-07T03:09:28;1.80;;;1.70;;
14094;SDS011;18096;48.142;16.290;2023-05-07T03:11:54;3.00;;;2.00;;
14094;SDS011;18096;48.142;16.290;2023-05-07T03:14:19;3.80;;;1.60;;
14094;SDS011;18096;48.142;16.290;2023-05-07T03:16:45;2.20;;;2.00;;
14094;SDS011;18096;48.142;16.290;2023-05-07T03:19:11;2.30;;;1.70;;
14094;SDS011;18096;48.142;16.290;2023-05-07T03:21:36;1.80;;;1.70;;
14094;SDS011;18096;48.142;16.290;2023-05-07T03:24:02;2.20;;;2.10;;
14094;SDS011;18096;48.142;16.290;2023-05-07T03:26:28;3.03;;;2.30;;
14094;SDS011;18096;48.142;16.290;2023-05-07T03:28:54;1.90;;;1.80;;
14094;SDS011;18096;48.142;16.290;2023-05-07T03:31:20;2.17;;;1.98;;
14094;SDS011;18096;48.142;16.290;2023-05-07T03:33:55;2.60;;;2.40;;
14094;SDS011;18096;48.142;16.290;2023-05-07T03:36:22;2.80;;;2.70;;
14094;SDS011;18096;48.142;16.290;2023-05-07T03:38:49;2.42;;;2.22;;
14094;SDS011;18096;48.142;16.290;2023-05-07T03:41:15;3.00;;;2.40;;
14094;SDS011;18096;48.142;16.290;2023-05-07T03:43:40;5.43;;;3.10;;
14094;SDS011;18096;48.142;16.290;2023-05-07T03:46:06;2.67;;;2.58;;
14094;SDS011;18096;48.142;16.290;2023-05-07T03:48:32;3.70;;;2.90;;
14094;SDS011;18096;48.142;16.290;2023-05-07T03:50:57;3.07;;;2.77;;
14094;SDS011;18096;48.142;16.290;2023-05-07T03:53:24;2.97;;;2.67;;
14094;SDS011;18096;48.142;16.290;2023-05-07T03:55:50;3.33;;;3.05;;
14094;SDS011;18096;48.142;16.290;2023-05-07T03:58:15;4.70;;;3.70;;
14094;SDS011;18096;48.142;16.290;2023-05-07T04:00:41;4.07;;;3.67;;
14094;SDS011;18096;48.142;16.290;2023-05-07T04:03:07;4.30;;;3.95;;
14094;SDS011;18096;48.142;16.290;2023-05-07T04:05:33;6.22;;;3.88;;
14094;SDS011;18096;48.142;16.290;2023-05-07T04:07:59;3.80;;;3.50;;
14094;SDS011;18096;48.142;16.290;2023-05-07T04:10:25;5.50;;;4.53;;
14094;SDS011;18096;48.142;16.290;2023-05-07T04:12:53;5.85;;;4.10;;
14094;SDS011;18096;48.142;16.290;2023-05-07T04:15:18;5.45;;;4.88;;
14094;SDS011;18096;48.142;16.290;2023-05-07T04:17:44;5.10;;;4.60;;
14094;SDS011;18096;48.142;16.290;2023-05-07T04:20:10;5.18;;;4.65;;
14094;SDS011;18096;48.142;16.290;2023-05-07T04:22:39;6.10;;;4.88;;
14094;SDS011;18096;48.142;16.290;2023-05-07T04:25:04;6.17;;;5.13;;
14094;SDS011;18096;48.142;16.290;2023-05-07T04:27:30;4.93;;;4.43;;
14094;SDS011;18096;48.142;16.290;2023-05-07T04:29:57;6.05;;;4.65;;
14094;SDS011;18096;48.142;16.290;2023-05-07T04:32:22;4.50;;;4.10;;
14094;SDS011;18096;48.142;16.290;2023-05-07T04:34:50;5.10;;;4.57;;
14094;SDS011;18096;48.142;16.290;2023-05-07T04:37:15;5.53;;;5.00;;
14094;SDS011;18096;48.142;16.290;2023-05-07T04:39:41;5.60;;;4.70;;
14094;SDS011;18096;48.142;16.290;2023-05-07T04:42:06;6.32;;;4.78;;
14094;SDS011;18096;48.142;16.290;2023-05-07T04:44:34;5.28;;;4.50;;
14094;SDS011;18096;48.142;16.290;2023-05-07T04:47:01;6.00;;;4.90;;
14094;SDS011;18096;48.142;16.290;2023-05-07T04:49:27;6.73;;;4.87;;
14094;SDS011;18096;48.142;16.290;2023-05-07T04:51:53;8.38;;;4.85;;
14094;SDS011;18096;48.142;16.290;2023-05-07T04:54:18;6.05;;;4.65;;
14094;SDS011;18096;48.142;16.290;2023-05-07T04:56:44;5.27;;;4.77;;
14094;SDS011;18096;48.142;16.290;2023-05-07T04:59:10;5.78;;;5.18;;
14094;SDS011;18096;48.142;16.290;2023-05-07T05:01:36;5.55;;;4.90;;
14094;SDS011;18096;48.142;16.290;2023-05-07T05:04:02;5.85;;;5.03;;
14094;SDS011;18096;48.142;16.290;2023-05-07T05:06:28;7.78;;;6.18;;
14094;SDS011;18096;48.142;16.290;2023-05-07T05:08:54;8.57;;;6.30;;
14094;SDS011;18096;48.142;16.290;2023-05-07T05:11:20;9.43;;;6.93;;
14094;SDS011;18096;48.142;16.290;2023-05-07T05:13:46;8.07;;;6.40;;
14094;SDS011;18096;48.142;16.290;2023-05-07T05:16:14;9.77;;;6.68;;
14094;SDS011;18096;48.142;16.290;2023-05-07T05:18:40;9.37;;;6.20;;
14094;SDS011;18096;48.142;16.290;2023-05-07T05:21:06;9.23;;;7.07;;
14094;SDS011;18096;48.142;16.290;2023-05-07T05:23:31;10.75;;;8.18;;
14094;SDS011;18096;48.142;16.290;2023-05-07T05:25:57;12.97;;;8.70;;
14094;SDS011;18096;48.142;16.290;2023-05-07T05:28:23;10.93;;;7.80;;
14094;SDS011;18096;48.142;16.290;2023-05-07T05:30:49;9.20;;;7.90;;
14094;SDS011;18096;48.142;16.290;2023-05-07T05:33:15;13.65;;;9.88;;
14094;SDS011;18096;48.142;16.290;2023-05-07T05:35:41;18.47;;;9.70;;
14094;SDS011;18096;48.142;16.290;2023-05-07T05:38:07;15.67;;;10.13;;
14094;SDS011;18096;48.142;16.290;2023-05-07T05:40:32;16.20;;;10.10;;
14094;SDS011;18096;48.142;16.290;2023-05-07T05:42:58;17.17;;;10.75;;
14094;SDS011;18096;48.142;16.290;2023-05-07T05:45:24;16.98;;;10.20;;
14094;SDS011;18096;48.142;16.290;2023-05-07T05:47:50;17.27;;;11.43;;
14094;SDS011;18096;48.142;16.290;2023-05-07T05:50:15;16.92;;;10.98;;
14094;SDS011;18096;48.142;16.290;2023-05-07T05:52:41;18.13;;;11.23;;
14094;SDS011;18096;48.142;16.290;2023-05-07T05:55:07;16.15;;;10.50;;
14094;SDS011;18096;48.142;16.290;2023-05-07T05:57:33;22.00;;;11.10;;
14094;SDS011;18096;48.142;16.290;2023-05-07T05:59:59;14.57;;;10.95;;
14094;SDS011;18096;48.142;16.290;2023-05-07T06:02:25;18.17;;;11.20;;
14094;SDS011;18096;48.142;16.290;2023-05-07T06:04:51;16.33;;;11.50;;
14094;SDS011;18096;48.142;16.290;2023-05-07T06:07:17;19.08;;;12.52;;
14094;SDS011;18096;48.142;16.290;2023-05-07T06:09:43;16.03;;;10.90;;
14094;SDS011;18096;48.142;16.290;2023-05-07T06:12:09;16.60;;;11.50;;
14094;SDS011;18096;48.142;16.290;2023-05-07T06:14:34;17.20;;;11.20;;
14094;SDS011;18096;48.142;16.290;2023-05-07T06:17:00;17.73;;;12.17;;
14094;SDS011;18096;48.142;16.290;2023-05-07T06:19:25;20.38;;;11.55;;
14094;SDS011;18096;48.142;16.290;2023-05-07T06:21:53;18.35;;;12.65;;
14094;SDS011;18096;48.142;16.290;2023-05-07T06:24:19;20.55;;;12.77;;
14094;SDS011;18096;48.142;16.290;2023-05-07T06:26:44;18.98;;;12.10;;
14094;SDS011;18096;48.142;16.290;2023-05-07T06:29:10;20.70;;;12.77;;
14094;SDS011;18096;48.142;16.290;2023-05-07T06:31:35;21.85;;;13.38;;
14094;SDS011;18096;48.142;16.290;2023-05-07T06:34:01;21.17;;;13.80;;
14094;SDS011;18096;48.142;16.290;2023-05-07T06:36:27;18.55;;;12.95;;
14094;SDS011;18096;48.142;16.290;2023-05-07T06:38:53;19.10;;;12.52;;
14094;SDS011;18096;48.142;16.290;2023-05-07T06:41:18;20.27;;;14.10;;
14094;SDS011;18096;48.142;16.290;2023-05-07T06:43:45;23.13;;;13.80;;
14094;SDS011;18096;48.142;16.290;2023-05-07T06:46:11;20.47;;;13.73;;
14094;SDS011;18096;48.142;16.290;2023-05-07T06:48:36;21.45;;;13.63;;
14094;SDS011;18096;48.142;16.290;2023-05-07T06:51:02;20.40;;;13.00;;
14094;SDS011;18096;48.142;16.290;2023-05-07T06:53:28;22.48;;;13.35;;
14094;SDS011;18096;48.142;16.290;2023-05-07T06:55:55;23.37;;;12.50;;
14094;SDS011;18096;48.142;16.290;2023-05-07T06:58:21;19.48;;;12.60;;
14094;SDS011;18096;48.142;16.290;2023-05-07T07:00:47;18.90;;;12.82;;
14094;SDS011;18096;48.142;16.290;2023-05-07T07:03:12;23.70;;;13.07;;
14094;SDS011;18096;48.142;16.290;2023-05-07T07:05:40;19.57;;;12.90;;
14094;SDS011;18096;48.142;16.290;2023-05-07T07:08:06;20.88;;;13.00;;
14094;SDS011;18096;48.142;16.290;2023-05-07T07:10:32;19.77;;;13.18;;
14094;SDS011;18096;48.142;16.290;2023-05-07T07:12:58;19.93;;;12.10;;
14094;SDS011;18096;48.142;16.290;2023-05-07T07:15:23;22.88;;;12.20;;
14094;SDS011;18096;48.142;16.290;2023-05-07T07:17:50;18.23;;;11.82;;
14094;SDS011;18096;48.142;16.290;2023-05-07T07:20:16;17.85;;;11.77;;
14094;SDS011;18096;48.142;16.290;2023-05-07T07:22:41;17.65;;;11.70;;
14094;SDS011;18096;48.142;16.290;2023-05-07T07:25:07;20.07;;;11.97;;
14094;SDS011;18096;48.142;16.290;2023-05-07T07:27:33;17.73;;;11.63;;
14094;SDS011;18096;48.142;16.290;2023-05-07T07:29:59;18.83;;;12.30;;
14094;SDS011;18096;48.142;16.290;2023-05-07T07:32:25;17.92;;;11.50;;
14094;SDS011;18096;48.142;16.290;2023-05-07T07:34:51;16.90;;;11.50;;
14094;SDS011;18096;48.142;16.290;2023-05-07T07:37:16;15.90;;;11.67;;
14094;SDS011;18096;48.142;16.290;2023-05-07T07:39:42;18.92;;;10.95;;
14094;SDS011;18096;48.142;16.290;2023-05-07T07:42:08;16.57;;;11.10;;
14094;SDS011;18096;48.142;16.290;2023-05-07T07:44:33;16.67;;;12.30;;
14094;SDS011;18096;48.142;16.290;2023-05-07T07:46:59;17.98;;;12.00;;
14094;SDS011;18096;48.142;16.290;2023-05-07T07:49:24;14.77;;;10.47;;
14094;SDS011;18096;48.142;16.290;2023-05-07T07:51:50;22.45;;;12.60;;
14094;SDS011;18096;48.142;16.290;2023-05-07T07:54:16;18.60;;;11.93;;
14094;SDS011;18096;48.142;16.290;2023-05-07T07:56:41;19.05;;;11.82;;
14094;SDS011;18096;48.142;16.290;2023-05-07T07:59:07;19.73;;;11.73;;
14094;SDS011;18096;48.142;16.290;2023-05-07T08:01:33;12.95;;;10.10;;
14094;SDS011;18096;48.142;16.290;2023-05-07T08:03:58;20.53;;;11.00;;
14094;SDS011;18096;48.142;16.290;2023-05-07T08:06:24;16.02;;;10.93;;
14094;SDS011;18096;48.142;16.290;2023-05-07T08:08:52;14.82;;;10.73;;
14094;SDS011;18096;48.142;16.290;2023-05-07T08:11:18;15.40;;;10.70;;
14094;SDS011;18096;48.142;16.290;2023-05-07T08:13:45;13.75;;;10.98;;
14094;SDS011;18096;48.142;16.290;2023-05-07T08:16:11;14.13;;;9.80;;
14094;SDS011;18096;48.142;16.290;2023-05-07T08:18:37;17.20;;;10.27;;
14094;SDS011;18096;48.142;16.290;2023-05-07T08:21:02;14.88;;;10.45;;
14094;SDS011;18096;48.142;16.290;2023-05-07T08:23:28;15.75;;;10.20;;
14094;SDS011;18096;48.142;16.290;2023-05-07T08:25:54;14.33;;;9.83;;
14094;SDS011;18096;48.142;16.290;2023-05-07T08:28:19;13.85;;;9.43;;
14094;SDS011;18096;48.142;16.290;2023-05-07T08:30:46;13.38;;;9.73;;
14094;SDS011;18096;48.142;16.290;2023-05-07T08:33:12;15.18;;;9.88;;
14094;SDS011;18096;48.142;16.290;2023-05-07T08:35:38;13.00;;;9.73;;
14094;SDS011;18096;48.142;16.290;2023-05-07T08:38:03;13.13;;;9.53;;
14094;SDS011;18096;48.142;16.290;2023-05-07T08:40:29;14.90;;;10.00;;
14094;SDS011;18096;48.142;16.290;2023-05-07T08:43:01;13.43;;;8.20;;
14094;SDS011;18096;48.142;16.290;2023-05-07T08:45:27;10.90;;;8.45;;
14094;SDS011;18096;48.142;16.290;2023-05-07T08:47:58;14.05;;;8.90;;
14094;SDS011;18096;48.142;16.290;2023-05-07T08:50:24;12.65;;;8.75;;
14094;SDS011;18096;48.142;16.290;2023-05-07T08:52:50;10.77;;;8.60;;
14094;SDS011;18096;48.142;16.290;2023-05-07T08:55:16;12.73;;;9.00;;
14094;SDS011;18096;48.142;16.290;2023-05-07T08:57:43;10.55;;;8.15;;
14094;SDS011;18096;48.142;16.290;2023-05-07T09:00:09;13.20;;;9.73;;
14094;SDS011;18096;48.142;16.290;2023-05-07T09:02:35;8.00;;;7.20;;
14094;SDS011;18096;48.142;16.290;2023-05-07T09:05:01;18.10;;;9.85;;
14094;SDS011;18096;48.142;16.290;2023-05-07T09:07:27;11.90;;;9.50;;
14094;SDS011;18096;48.142;16.290;2023-05-07T09:09:55;18.40;;;8.55;;
14094;SDS011;18096;48.142;16.290;2023-05-07T09:12:22;8.55;;;7.75;;
14094;SDS011;18096;48.142;16.290;2023-05-07T09:14:48;10.35;;;8.48;;
14094;SDS011;18096;48.142;16.290;2023-05-07T09:17:15;12.93;;;8.50;;
14094;SDS011;18096;48.142;16.290;2023-05-07T09:19:41;12.27;;;8.38;;
14094;SDS011;18096;48.142;16.290;2023-05-07T09:22:09;11.20;;;8.07;;
14094;SDS011;18096;48.142;16.290;2023-05-07T09:24:35;15.40;;;8.05;;
14094;SDS011;18096;48.142;16.290;2023-05-07T09:27:03;11.48;;;7.65;;
14094;SDS011;18096;48.142;16.290;2023-05-07T09:29:29;9.40;;;7.22;;
14094;SDS011;18096;48.142;16.290;2023-05-07T09:32:00;12.43;;;8.30;;
14094;SDS011;18096;48.142;16.290;2023-05-07T09:34:30;11.60;;;8.38;;
14094;SDS011;18096;48.142;16.290;2023-05-07T09:36:56;10.48;;;7.68;;
14094;SDS011;18096;48.142;16.290;2023-05-07T09:39:26;11.82;;;8.60;;
14094;SDS011;18096;48.142;16.290;2023-05-07T09:42:03;7.45;;;6.65;;
14094;SDS011;18096;48.142;16.290;2023-05-07T09:44:29;15.38;;;8.82;;
14094;SDS011;18096;48.142;16.290;2023-05-07T09:46:57;10.40;;;7.18;;
14094;SDS011;18096;48.142;16.290;2023-05-07T09:49:25;13.07;;;9.30;;
14094;SDS011;18096;48.142;16.290;2023-05-07T09:51:57;11.98;;;7.82;;
14094;SDS011;18096;48.142;16.290;2023-05-07T09:54:25;13.60;;;8.77;;
14094;SDS011;18096;48.142;16.290;2023-05-07T09:56:53;13.27;;;8.40;;
14094;SDS011;18096;48.142;16.290;2023-05-07T09:59:20;9.60;;;7.60;;
14094;SDS011;18096;48.142;16.290;2023-05-07T10:01:47;11.55;;;7.50;;
14094;SDS011;18096;48.142;16.290;2023-05-07T10:04:14;8.50;;;7.18;;
14094;SDS011;18096;48.142;16.290;2023-05-07T10:06:41;10.80;;;6.85;;
14094;SDS011;18096;48.142;16.290;2023-05-07T10:09:09;12.43;;;7.57;;
14094;SDS011;18096;48.142;16.290;2023-05-07T10:11:36;10.27;;;7.32;;
14094;SDS011;18096;48.142;16.290;2023-05-07T10:14:02;9.23;;;7.10;;
14094;SDS011;18096;48.142;16.290;2023-05-07T10:16:31;9.10;;;7.25;;
14094;SDS011;18096;48.142;16.290;2023-05-07T10:18:58;10.85;;;7.18;;
14094;SDS011;18096;48.142;16.290;2023-05-07T10:21:24;11.13;;;7.43;;
14094;SDS011;18096;48.142;16.290;2023-05-07T10:24:02;10.20;;;7.60;;
14094;SDS011;18096;48.142;16.290;2023-05-07T10:26:43;8.77;;;7.70;;
14094;SDS011;18096;48.142;16.290;2023-05-07T10:29:16;9.75;;;6.88;;
14094;SDS011;18096;48.142;16.290;2023-05-07T10:34:23;7.72;;;6.93;;
14094;SDS011;18096;48.142;16.290;2023-05-07T10:36:52;7.15;;;6.32;;
14094;SDS011;18096;48.142;16.290;2023-05-07T10:39:20;9.90;;;7.10;;
14094;SDS011;18096;48.142;16.290;2023-05-07T10:41:46;8.88;;;7.07;;
14094;SDS011;18096;48.142;16.290;2023-05-07T10:44:24;11.18;;;7.30;;
14094;SDS011;18096;48.142;16.290;2023-05-07T10:49:51;12.18;;;7.43;;
14094;SDS011;18096;48.142;16.290;2023-05-07T10:52:21;9.23;;;6.28;;
14094;SDS011;18096;48.142;16.290;2023-05-07T10:55:18;11.52;;;6.97;;
14094;SDS011;18096;48.142;16.290;2023-05-07T10:57:42;8.45;;;6.45;;
14094;SDS011;18096;48.142;16.290;2023-05-07T11:05:29;9.25;;;6.45;;
14094;SDS011;18096;48.142;16.290;2023-05-07T11:07:56;10.27;;;5.80;;
14094;SDS011;18096;48.142;16.290;2023-05-07T11:10:23;8.33;;;5.63;;
14094;SDS011;18096;48.142;16.290;2023-05-07T11:13:42;8.02;;;6.00;;
14094;SDS011;18096;48.142;16.290;2023-05-07T11:16:18;8.77;;;6.10;;
14094;SDS011;18096;48.142;16.290;2023-05-07T11:21:36;12.00;;;7.20;;
14094;SDS011;18096;48.142;16.290;2023-05-07T11:24:02;8.73;;;6.40;;
14094;SDS011;18096;48.142;16.290;2023-05-07T11:26:29;7.60;;;6.20;;
14094;SDS011;18096;48.142;16.290;2023-05-07T11:29:10;10.27;;;7.10;;
14094;SDS011;18096;48.142;16.290;2023-05-07T11:31:49;9.30;;;6.53;;
14094;SDS011;18096;48.142;16.290;2023-05-07T11:34:20;13.60;;;7.35;;
14094;SDS011;18096;48.142;16.290;2023-05-07T11:36:46;9.07;;;6.35;;
14094;SDS011;18096;48.142;16.290;2023-05-07T11:39:23;7.82;;;6.60;;
14094;SDS011;18096;48.142;16.290;2023-05-07T11:42:01;11.35;;;6.53;;
14094;SDS011;18096;48.142;16.290;2023-05-07T11:44:48;11.20;;;6.03;;
14094;SDS011;18096;48.142;16.290;2023-05-07T11:47:17;8.00;;;5.20;;
14094;SDS011;18096;48.142;16.290;2023-05-07T11:49:45;7.22;;;6.00;;
14094;SDS011;18096;48.142;16.290;2023-05-07T11:52:12;6.07;;;5.20;;
14094;SDS011;18096;48.142;16.290;2023-05-07T11:54:38;7.27;;;5.90;;
14094;SDS011;18096;48.142;16.290;2023-05-07T11:57:04;8.88;;;6.50;;
14094;SDS011;18096;48.142;16.290;2023-05-07T11:59:30;6.88;;;5.97;;
14094;SDS011;18096;48.142;16.290;2023-05-07T12:02:05;6.15;;;5.50;;
14094;SDS011;18096;48.142;16.290;2023-05-07T12:04:31;8.80;;;5.27;;
14094;SDS011;18096;48.142;16.290;2023-05-07T12:06:57;7.87;;;5.70;;
14094;SDS011;18096;48.142;16.290;2023-05-07T12:09:22;5.75;;;5.07;;
14094;SDS011;18096;48.142;16.290;2023-05-07T12:11:48;10.40;;;5.70;;
14094;SDS011;18096;48.142;16.290;2023-05-07T12:14:14;8.50;;;5.55;;
14094;SDS011;18096;48.142;16.290;2023-05-07T12:16:41;6.38;;;5.68;;
14094;SDS011;18096;48.142;16.290;2023-05-07T12:19:07;7.18;;;5.13;;
14094;SDS011;18096;48.142;16.290;2023-05-07T12:21:34;8.05;;;5.82;;
14094;SDS011;18096;48.142;16.290;2023-05-07T12:24:00;7.20;;;5.50;;
14094;SDS011;18096;48.142;16.290;2023-05-07T12:26:26;6.88;;;5.03;;
14094;SDS011;18096;48.142;16.290;2023-05-07T12:28:52;11.73;;;5.40;;
14094;SDS011;18096;48.142;16.290;2023-05-07T12:31:17;10.05;;;6.05;;
14094;SDS011;18096;48.142;16.290;2023-05-07T12:33:43;6.90;;;4.90;;
14094;SDS011;18096;48.142;16.290;2023-05-07T12:36:11;7.38;;;5.55;;
14094;SDS011;18096;48.142;16.290;2023-05-07T12:38:38;5.43;;;4.93;;
14094;SDS011;18096;48.142;16.290;2023-05-07T12:41:06;6.80;;;4.60;;
14094;SDS011;18096;48.142;16.290;2023-05-07T12:43:32;7.82;;;4.93;;
14094;SDS011;18096;48.142;16.290;2023-05-07T12:46:06;8.95;;;5.28;;
14094;SDS011;18096;48.142;16.290;2023-05-07T12:48:32;7.22;;;5.40;;
14094;SDS011;18096;48.142;16.290;2023-05-07T12:51:01;6.10;;;4.72;;
14094;SDS011;18096;48.142;16.290;2023-05-07T12:53:28;5.95;;;5.35;;
14094;SDS011;18096;48.142;16.290;2023-05-07T12:55:55;5.30;;;4.60;;
14094;SDS011;18096;48.142;16.290;2023-05-07T12:58:29;5.63;;;5.10;;
14094;SDS011;18096;48.142;16.290;2023-05-07T13:00:58;5.95;;;4.72;;
14094;SDS011;18096;48.142;16.290;2023-05-07T13:03:32;5.43;;;4.88;;
14094;SDS011;18096;48.142;16.290;2023-05-07T13:05:59;5.95;;;4.70;;
14094;SDS011;18096;48.142;16.290;2023-05-07T13:11:00;8.57;;;4.60;;
14094;SDS011;18096;48.142;16.290;2023-05-07T13:13:33;9.25;;;4.70;;
14094;SDS011;18096;48.142;16.290;2023-05-07T13:16:00;7.18;;;5.60;;
14094;SDS011;18096;48.142;16.290;2023-05-07T13:18:29;6.63;;;5.57;;
14094;SDS011;18096;48.142;16.290;2023-05-07T13:20:56;7.97;;;5.55;;
14094;SDS011;18096;48.142;16.290;2023-05-07T13:23:22;7.88;;;5.53;;
14094;SDS011;18096;48.142;16.290;2023-05-07T13:25:48;6.30;;;5.33;;
14094;SDS011;18096;48.142;16.290;2023-05-07T13:28:14;6.55;;;4.65;;
14094;SDS011;18096;48.142;16.290;2023-05-07T13:30:40;5.60;;;4.93;;
14094;SDS011;18096;48.142;16.290;2023-05-07T13:33:06;8.70;;;4.27;;
14094;SDS011;18096;48.142;16.290;2023-05-07T13:35:31;6.25;;;3.95;;
14094;SDS011;18096;48.142;16.290;2023-05-07T13:37:57;3.60;;;3.30;;
14094;SDS011;18096;48.142;16.290;2023-05-07T13:40:23;4.77;;;4.10;;
14094;SDS011;18096;48.142;16.290;2023-05-07T13:42:49;4.55;;;4.15;;
14094;SDS011;18096;48.142;16.290;2023-05-07T13:45:15;4.20;;;3.80;;
14094;SDS011;18096;48.142;16.290;2023-05-07T13:47:42;4.40;;;4.00;;
14094;SDS011;18096;48.142;16.290;2023-05-07T13:50:08;7.03;;;4.53;;
14094;SDS011;18096;48.142;16.290;2023-05-07T13:52:36;4.63;;;4.13;;
14094;SDS011;18096;48.142;16.290;2023-05-07T13:55:02;4.72;;;4.10;;
14094;SDS011;18096;48.142;16.290;2023-05-07T13:57:28;7.72;;;4.10;;
14094;SDS011;18096;48.142;16.290;2023-05-07T13:59:53;4.30;;;3.75;;
14094;SDS011;18096;48.142;16.290;2023-05-07T14:02:19;4.17;;;3.87;;
14094;SDS011;18096;48.142;16.290;2023-05-07T14:04:45;4.63;;;3.13;;
14094;SDS011;18096;48.142;16.290;2023-05-07T14:07:10;4.27;;;3.77;;
14094;SDS011;18096;48.142;16.290;2023-05-07T14:09:36;4.45;;;3.63;;
14094;SDS011;18096;48.142;16.290;2023-05-07T14:12:02;4.60;;;4.20;;
14094;SDS011;18096;48.142;16.290;2023-05-07T14:14:27;3.63;;;3.33;;
14094;SDS011;18096;48.142;16.290;2023-05-07T14:16:53;5.07;;;3.80;;
14094;SDS011;18096;48.142;16.290;2023-05-07T14:19:19;4.40;;;4.00;;
14094;SDS011;18096;48.142;16.290;2023-05-07T14:21:44;4.00;;;3.70;;
14094;SDS011;18096;48.142;16.290;2023-05-07T14:24:10;3.45;;;3.15;;
14094;SDS011;18096;48.142;16.290;2023-05-07T14:26:36;4.00;;;3.60;;
14094;SDS011;18096;48.142;16.290;2023-05-07T14:29:02;4.55;;;3.50;;
14094;SDS011;18096;48.142;16.290;2023-05-07T14:31:28;4.40;;;3.27;;
14094;SDS011;18096;48.142;16.290;2023-05-07T14:33:54;5.10;;;3.28;;
14094;SDS011;18096;48.142;16.290;2023-05-07T14:36:19;3.57;;;3.30;;
14094;SDS011;18096;48.142;16.290;2023-05-07T14:38:46;4.63;;;3.80;;
14094;SDS011;18096;48.142;16.290;2023-05-07T14:41:12;9.40;;;3.42;;
14094;SDS011;18096;48.142;16.290;2023-05-07T14:43:37;3.20;;;2.90;;